Time;durP1;ratioP1;P1;durP2;ratioP2;P2;SDS_P1;SDS_P2;PMS_P1;PMS_P2;Temp;Humidity;BMP_temperature;BMP_pressure;BME280_temperature;BME280_humidity;BME280_pressure;Samples;Min_cycle;Max_cycle;Signal;HPM_P1;HPM_P2
2022/04/17 00:02:07;;;;;;;6.23;5.60;;;7.80;51.10;;;;;;6130303;29;20472;-62
2022/04/17 00:05:10;;;;;;;7.50;6.30;;;7.70;50.60;;;;;;6130354;29;20506;-63
2022/04/17 00:08:14;;;;;;;6.33;5.70;;;7.70;50.40;;;;;;6117100;29;20488;-63
2022/04/17 00:11:17;;;;;;;6.07;5.23;;;7.70;50.00;;;;;;6130745;29;20483;-63
2022/04/17 00:14:21;;;;;;;6.73;5.57;;;7.70;49.90;;;;;;6129813;29;20484;-63
2022/04/17 00:17:25;;;;;;;5.77;5.20;;;7.70;49.60;;;;;;6130185;29;20546;-62
2022/04/17 00:20:28;;;;;;;7.30;5.83;;;7.80;49.40;;;;;;6129710;29;20486;-62
2022/04/17 00:23:32;;;;;;;5.00;4.30;;;7.80;49.20;;;;;;6130029;29;20797;-62
2022/04/17 00:26:35;;;;;;;7.20;4.87;;;7.80;49.20;;;;;;6129862;29;21007;-62
2022/04/17 00:29:39;;;;;;;5.20;4.70;;;7.80;48.90;;;;;;6129227;29;20476;-62
2022/04/17 00:32:43;;;;;;;4.30;3.90;;;7.80;48.00;;;;;;6129650;29;20499;-62
2022/04/17 00:35:46;;;;;;;4.13;3.73;;;7.80;47.70;;;;;;6129909;29;20468;-63
2022/04/17 00:38:49;;;;;;;3.87;3.50;;;7.80;47.60;;;;;;6130028;29;20487;-63
2022/04/17 00:41:53;;;;;;;4.73;3.47;;;7.90;47.30;;;;;;6129061;29;20483;-63
2022/04/17 00:44:56;;;;;;;3.70;3.37;;;7.90;47.00;;;;;;6129863;29;20495;-63
2022/04/17 00:48:00;;;;;;;3.63;3.33;;;7.90;46.90;;;;;;6129694;29;20484;-63
2022/04/17 00:51:05;;;;;;;2.73;2.53;;;7.90;46.60;;;;;;6129376;29;20487;-63
2022/04/17 00:54:12;;;;;;;3.63;3.27;;;7.90;46.60;;;;;;6129118;29;20491;-62
2022/04/17 00:57:16;;;;;;;3.73;3.30;;;7.90;46.40;;;;;;6129329;29;20476;-62
2022/04/17 01:00:19;;;;;;;3.60;3.30;;;7.90;46.60;;;;;;6128984;29;20531;-62
2022/04/17 01:03:24;;;;;;;3.90;3.60;;;7.90;46.70;;;;;;6129287;29;20468;-62
2022/04/17 01:06:27;;;;;;;4.53;3.47;;;7.90;47.20;;;;;;6129502;29;20499;-62
2022/04/17 01:09:31;;;;;;;3.47;3.17;;;7.90;47.30;;;;;;6120246;29;20753;-62
2022/04/17 01:12:36;;;;;;;3.40;3.10;;;7.90;47.60;;;;;;6129195;29;20482;-62
2022/04/17 01:15:39;;;;;;;7.60;4.93;;;7.80;47.80;;;;;;6129389;29;20782;-63
2022/04/17 01:18:55;;;;;;;4.63;4.23;;;7.80;47.90;;;;;;6129097;29;20482;-63
2022/04/17 01:22:00;;;;;;;3.60;3.30;;;7.80;48.00;;;;;;6129037;29;20965;-62
2022/04/17 01:28:24;;;;;;;5.50;3.90;;;7.70;48.50;;;;;;6129243;29;20495;-62
2022/04/17 01:31:27;;;;;;;3.30;3.00;;;7.70;48.90;;;;;;6128962;29;20482;-62
2022/04/17 01:34:31;;;;;;;3.83;3.50;;;7.70;49.10;;;;;;6128599;29;20485;-62
2022/04/17 01:37:35;;;;;;;4.23;3.83;;;7.60;48.90;;;;;;6129117;29;20468;-62
2022/04/17 01:40:38;;;;;;;5.37;4.27;;;7.60;49.00;;;;;;6129204;29;20809;-63
2022/04/17 01:43:41;;;;;;;3.27;3.00;;;7.60;49.20;;;;;;6129103;29;20480;-62
2022/04/17 01:46:45;;;;;;;5.73;3.80;;;7.60;49.40;;;;;;6128451;29;20471;-62
2022/04/17 01:49:48;;;;;;;4.40;3.83;;;7.60;49.40;;;;;;6127806;29;20789;-62
2022/04/17 01:52:53;;;;;;;4.27;3.87;;;7.50;49.60;;;;;;6129962;29;20972;-62
2022/04/17 01:55:56;;;;;;;5.43;4.97;;;7.50;50.00;;;;;;6132453;29;20495;-62
2022/04/17 01:58:59;;;;;;;5.10;4.60;;;7.50;50.60;;;;;;6133105;29;20479;-62
2022/04/17 02:02:02;;;;;;;3.83;3.53;;;7.50;51.10;;;;;;6131908;29;20998;-62
2022/04/17 02:05:07;;;;;;;5.40;4.20;;;7.40;51.60;;;;;;6132341;29;20475;-62
2022/04/17 02:08:15;;;;;;;5.30;4.10;;;7.30;51.40;;;;;;6132217;29;20979;-62
2022/04/17 02:11:18;;;;;;;4.80;4.00;;;7.30;51.40;;;;;;6132824;29;20804;-62
2022/04/17 02:14:21;;;;;;;4.90;3.77;;;7.30;51.40;;;;;;6123743;29;20490;-62
2022/04/17 02:17:24;;;;;;;6.37;4.93;;;7.20;51.80;;;;;;6132965;28;20966;-62
2022/04/17 02:20:27;;;;;;;4.93;4.07;;;7.20;52.00;;;;;;6132939;29;20476;-62
2022/04/17 02:23:32;;;;;;;6.00;5.17;;;7.20;51.50;;;;;;6132558;29;20491;-61
2022/04/17 02:26:35;;;;;;;5.03;4.60;;;7.20;51.70;;;;;;6132343;29;20487;-61
2022/04/17 02:29:38;;;;;;;5.97;5.07;;;7.10;52.00;;;;;;6132684;29;20475;-61
2022/04/17 02:32:41;;;;;;;5.53;5.03;;;7.10;52.40;;;;;;6132300;29;20487;-61
2022/04/17 02:35:44;;;;;;;5.77;5.10;;;7.00;53.10;;;;;;6132338;29;20475;-61
2022/04/17 02:38:49;;;;;;;7.10;6.40;;;7.00;53.10;;;;;;6132490;29;20486;-61
2022/04/17 02:41:52;;;;;;;6.33;5.63;;;6.90;53.00;;;;;;6131635;29;20498;-62
2022/04/17 02:44:55;;;;;;;5.97;5.47;;;6.90;53.00;;;;;;6131181;28;20491;-61
2022/04/17 02:47:58;;;;;;;8.67;5.37;;;6.90;53.40;;;;;;6131165;29;20483;-63
2022/04/17 02:51:02;;;;;;;7.30;5.40;;;6.80;53.50;;;;;;6131748;29;20480;-61
2022/04/17 02:54:07;;;;;;;6.67;5.77;;;6.70;53.90;;;;;;6130872;29;20479;-62
2022/04/17 02:57:10;;;;;;;6.07;5.43;;;6.60;54.20;;;;;;6131786;29;20479;-62
2022/04/17 03:00:14;;;;;;;5.30;4.80;;;6.60;54.90;;;;;;6131726;29;20484;-63
2022/04/17 03:06:37;;;;;;;5.43;4.93;;;6.50;55.20;;;;;;6131830;29;20475;-62
2022/04/17 03:09:42;;;;;;;5.40;4.90;;;6.50;55.10;;;;;;6130896;29;20473;-62
2022/04/17 03:12:45;;;;;;;5.80;5.30;;;6.40;55.40;;;;;;6130029;29;20487;-61
2022/04/17 03:15:48;;;;;;;5.20;4.70;;;6.30;56.00;;;;;;6121779;29;20485;-63
2022/04/17 03:18:52;;;;;;;7.90;5.50;;;6.30;55.50;;;;;;6129694;28;20480;-62
2022/04/17 03:21:55;;;;;;;6.30;5.70;;;6.30;55.80;;;;;;6129976;29;20486;-62
2022/04/17 03:25:01;;;;;;;6.63;5.00;;;6.30;55.70;;;;;;6130138;29;20475;-62
2022/04/17 03:28:04;;;;;;;7.03;5.13;;;6.20;55.70;;;;;;6131368;29;20483;-62
2022/04/17 03:31:07;;;;;;;5.50;5.00;;;6.20;55.90;;;;;;6131077;28;20950;-60
2022/04/17 03:34:12;;;;;;;10.10;4.87;;;6.10;56.40;;;;;;6131605;29;20467;-63
2022/04/17 03:37:15;;;;;;;5.97;5.33;;;6.10;56.50;;;;;;6132826;29;20483;-62
2022/04/17 03:40:20;;;;;;;5.60;5.10;;;6.10;56.60;;;;;;6130847;29;20471;-63
2022/04/17 03:43:23;;;;;;;5.17;4.70;;;6.10;57.00;;;;;;6133370;29;20486;-64
2022/04/17 03:46:26;;;;;;;6.97;5.70;;;6.00;56.80;;;;;;6131396;29;20533;-63
2022/04/17 03:49:29;;;;;;;5.10;4.60;;;6.00;57.10;;;;;;6130796;29;20494;-62
2022/04/17 03:52:39;;;;;;;5.27;4.77;;;5.90;57.10;;;;;;6131053;29;20562;-61
2022/04/17 03:55:43;;;;;;;5.33;4.83;;;5.80;57.00;;;;;;6130638;29;20476;-62
2022/04/17 03:58:46;;;;;;;6.13;5.33;;;5.80;57.50;;;;;;6130725;29;20490;-62
2022/04/17 04:01:50;;;;;;;5.43;4.93;;;5.70;58.10;;;;;;6131352;29;20991;-62
2022/04/17 04:04:53;;;;;;;6.00;5.40;;;5.60;58.20;;;;;;6130689;29;20491;-61
2022/04/17 04:07:56;;;;;;;5.90;5.27;;;5.60;58.60;;;;;;6130886;29;20493;-63
2022/04/17 04:11:01;;;;;;;6.07;5.03;;;5.60;58.70;;;;;;6130746;29;20479;-63
2022/04/17 04:14:05;;;;;;;8.07;5.90;;;5.60;59.00;;;;;;6131873;29;20483;-61
2022/04/17 04:17:09;;;;;;;6.90;4.90;;;5.50;59.40;;;;;;6130320;29;20476;-63
2022/04/17 04:20:12;;;;;;;5.63;4.53;;;5.50;59.40;;;;;;6127708;29;20479;-63
2022/04/17 04:23:16;;;;;;;5.83;5.30;;;5.50;59.50;;;;;;6130624;28;20562;-62
2022/04/17 04:26:20;;;;;;;5.67;5.00;;;5.40;59.60;;;;;;6130419;29;20483;-63
2022/04/17 04:29:22;;;;;;;8.10;4.60;;;5.40;60.50;;;;;;6131357;29;20493;-63
2022/04/17 04:32:25;;;;;;;5.00;4.50;;;5.50;59.90;;;;;;6131395;29;20483;-63
2022/04/17 04:35:29;;;;;;;6.43;5.33;;;5.40;59.90;;;;;;6130959;29;20491;-62
2022/04/17 04:38:33;;;;;;;5.83;5.33;;;5.50;60.30;;;;;;6131100;29;20483;-64
2022/04/17 04:41:37;;;;;;;9.70;5.20;;;5.50;60.40;;;;;;6130563;29;20478;-62
2022/04/17 04:44:40;;;;;;;5.20;4.70;;;5.50;60.40;;;;;;6130557;29;20833;-64
2022/04/17 04:47:42;;;;;;;5.27;4.77;;;5.50;60.40;;;;;;6131596;29;20494;-63
2022/04/17 04:50:46;;;;;;;5.20;4.80;;;5.60;60.20;;;;;;6132673;29;20490;-65
2022/04/17 04:53:49;;;;;;;4.97;4.47;;;5.60;59.90;;;;;;6130257;28;20475;-64
2022/04/17 04:56:54;;;;;;;5.03;4.53;;;5.60;60.00;;;;;;6130209;29;20482;-62
2022/04/17 04:59:57;;;;;;;6.60;4.90;;;5.60;60.80;;;;;;6128768;28;20484;-63
2022/04/17 05:03:00;;;;;;;6.27;4.77;;;5.60;60.70;;;;;;6129138;29;20495;-63
2022/04/17 05:06:04;;;;;;;4.93;4.53;;;5.60;59.70;;;;;;6130340;28;20488;-62
2022/04/17 05:09:07;;;;;;;6.40;4.33;;;5.60;59.90;;;;;;6130092;29;20501;-64
2022/04/17 05:12:12;;;;;;;5.20;4.70;;;5.70;60.10;;;;;;6130087;28;20502;-63
2022/04/17 05:15:15;;;;;;;5.67;4.43;;;5.70;60.10;;;;;;6130411;29;20827;-63
2022/04/17 05:18:19;;;;;;;10.00;5.00;;;5.80;59.60;;;;;;6130632;29;20803;-62
2022/04/17 05:21:31;;;;;;;4.30;3.90;;;5.90;59.80;;;;;;6130064;29;20799;-61
2022/04/17 05:24:34;;;;;;;4.30;3.60;;;6.00;59.40;;;;;;6126285;29;20491;-61
2022/04/17 05:27:39;;;;;;;5.23;4.77;;;6.20;60.10;;;;;;6133055;29;20499;-61
2022/04/17 05:30:43;;;;;;;7.20;4.23;;;6.30;59.50;;;;;;6137314;29;20471;-61
2022/04/17 05:33:46;;;;;;;4.30;3.90;;;6.40;59.20;;;;;;6135726;29;20486;-61
2022/04/17 05:36:49;;;;;;;7.20;4.40;;;6.60;59.00;;;;;;6135939;29;20476;-63
2022/04/17 05:39:52;;;;;;;5.00;4.60;;;6.70;58.60;;;;;;6135846;29;20989;-63
2022/04/17 05:42:57;;;;;;;5.03;4.53;;;7.00;57.70;;;;;;6134626;29;20475;-63
2022/04/17 05:46:00;;;;;;;4.90;4.40;;;7.60;57.40;;;;;;6134455;29;20498;-63
2022/04/17 05:49:04;;;;;;;6.43;4.30;;;8.60;56.40;;;;;;6133101;29;20858;-62
2022/04/17 05:52:07;;;;;;;4.17;3.80;;;9.60;52.90;;;;;;6133645;29;20475;-62
2022/04/17 05:55:11;;;;;;;5.63;4.23;;;10.60;49.90;;;;;;6133156;29;20494;-63
2022/04/17 05:58:15;;;;;;;5.40;3.40;;;11.60;47.70;;;;;;6133461;29;20478;-62
2022/04/17 06:01:18;;;;;;;5.83;4.07;;;12.40;45.60;;;;;;6133285;29;20483;-62
2022/04/17 06:04:21;;;;;;;3.87;3.27;;;13.20;43.40;;;;;;6133012;29;20499;-62
2022/04/17 06:07:28;;;;;;;3.00;2.80;;;14.00;41.20;;;;;;6132764;29;20479;-63
2022/04/17 06:10:31;;;;;;;3.17;2.97;;;15.10;39.70;;;;;;6133470;29;20486;-64
2022/04/17 06:13:36;;;;;;;3.50;3.10;;;15.80;37.80;;;;;;6133307;29;20483;-64
2022/04/17 06:16:39;;;;;;;4.70;3.10;;;16.50;34.70;;;;;;6132970;29;20983;-63
2022/04/17 06:19:43;;;;;;;3.17;2.50;;;16.90;34.10;;;;;;6133187;29;20475;-62
2022/04/17 06:22:46;;;;;;;3.37;3.00;;;17.40;32.80;;;;;;6132465;29;20499;-62
2022/04/17 06:25:49;;;;;;;2.60;2.40;;;17.80;32.10;;;;;;6133080;29;20527;-63
2022/04/17 06:28:54;;;;;;;4.33;2.87;;;18.60;31.20;;;;;;6132415;29;20487;-62
2022/04/17 06:31:57;;;;;;;4.10;2.80;;;19.10;29.40;;;;;;6132087;29;21012;-62
2022/04/17 06:35:00;;;;;;;2.97;2.77;;;19.70;29.30;;;;;;6132134;29;20267;-63
2022/04/17 06:38:05;;;;;;;5.03;3.00;;;20.10;26.90;;;;;;6132408;29;20227;-63
2022/04/17 06:41:08;;;;;;;2.70;2.50;;;20.10;26.60;;;;;;6132459;29;20235;-63
2022/04/17 06:44:13;;;;;;;3.27;3.00;;;20.70;26.60;;;;;;6132684;28;20239;-63
2022/04/17 06:47:16;;;;;;;3.57;3.23;;;21.30;25.40;;;;;;6132237;29;20695;-61
2022/04/17 06:50:20;;;;;;;3.00;2.80;;;22.00;24.80;;;;;;6132321;28;20247;-62
2022/04/17 06:53:24;;;;;;;3.17;2.97;;;22.60;24.40;;;;;;6131960;29;20235;-62
2022/04/17 06:56:27;;;;;;;4.60;3.37;;;23.20;23.80;;;;;;6131699;28;20255;-62
2022/04/17 06:59:31;;;;;;;3.13;2.93;;;23.80;23.60;;;;;;6132154;29;20247;-63
2022/04/17 07:02:34;;;;;;;3.27;3.07;;;23.90;23.30;;;;;;6131719;28;20244;-64
2022/04/17 07:05:38;;;;;;;3.30;3.10;;;24.60;22.50;;;;;;6131697;29;20319;-64
2022/04/17 07:08:41;;;;;;;2.77;2.57;;;24.90;22.10;;;;;;6131723;28;20240;-64
2022/04/17 07:11:44;;;;;;;4.40;3.00;;;25.80;21.90;;;;;;6131911;29;20235;-64
2022/04/17 07:14:49;;;;;;;3.10;2.80;;;26.80;20.50;;;;;;6131504;29;20239;-64
2022/04/17 07:17:52;;;;;;;3.50;2.77;;;27.60;20.10;;;;;;6134217;29;20675;-64
2022/04/17 07:20:56;;;;;;;4.03;3.27;;;28.30;19.60;;;;;;6131476;29;20593;-63
2022/04/17 07:23:59;;;;;;;5.43;3.67;;;29.30;19.20;;;;;;6131318;29;20235;-62
2022/04/17 07:27:02;;;;;;;3.40;2.73;;;30.10;18.10;;;;;;6131034;29;20250;-64
2022/04/17 07:30:10;;;;;;;4.50;3.33;;;30.60;17.50;;;;;;6131324;29;20687;-63
2022/04/17 07:33:14;;;;;;;4.57;2.67;;;31.10;16.70;;;;;;6122417;29;20239;-63
2022/04/17 07:36:18;;;;;;;3.70;3.17;;;31.60;16.60;;;;;;6131741;28;20311;-63
2022/04/17 07:39:22;;;;;;;3.50;3.20;;;31.90;16.60;;;;;;6131048;28;20219;-64
2022/04/17 07:42:26;;;;;;;3.97;3.17;;;31.20;16.80;;;;;;6131102;29;20239;-63
2022/04/17 07:45:31;;;;;;;2.40;2.20;;;30.90;17.30;;;;;;6130982;29;20651;-63
2022/04/17 07:48:34;;;;;;;3.27;2.97;;;28.50;17.20;;;;;;6130654;29;20238;-63
2022/04/17 07:51:38;;;;;;;2.77;2.50;;;28.60;18.00;;;;;;6130123;28;20206;-63
2022/04/17 07:54:41;;;;;;;3.00;2.70;;;30.30;16.70;;;;;;6130460;29;20231;-63
2022/04/17 07:57:56;;;;;;;2.80;2.60;;;31.00;16.30;;;;;;6131208;29;20238;-63
2022/04/17 08:01:10;;;;;;;3.53;2.33;;;32.20;15.70;;;;;;6130554;29;20231;-63
2022/04/17 08:04:13;;;;;;;5.82;2.80;;;33.70;15.00;;;;;;6130490;29;20234;-63
2022/04/17 08:07:17;;;;;;;3.42;2.50;;;35.20;14.00;;;;;;6129959;29;20227;-63
2022/04/17 08:10:20;;;;;;;3.22;2.70;;;35.50;13.40;;;;;;6130489;29;20238;-63
2022/04/17 08:13:23;;;;;;;5.00;2.47;;;34.80;12.90;;;;;;6130166;29;20236;-63
2022/04/17 08:16:28;;;;;;;3.25;2.95;;;34.80;13.50;;;;;;6130307;29;20227;-63
2022/04/17 08:19:32;;;;;;;3.50;2.15;;;35.40;14.10;;;;;;6129558;29;20226;-63
2022/04/17 08:22:35;;;;;;;2.50;2.08;;;36.60;12.70;;;;;;6130019;29;20242;-64
2022/04/17 08:25:38;;;;;;;3.42;2.35;;;36.30;12.00;;;;;;6129594;29;20246;-63
2022/04/17 08:28:42;;;;;;;2.17;1.95;;;37.20;12.40;;;;;;6127918;29;20231;-62
2022/04/17 08:31:46;;;;;;;2.50;2.30;;;38.40;11.30;;;;;;6126514;29;20313;-64
2022/04/17 08:34:49;;;;;;;2.55;1.85;;;39.00;11.20;;;;;;6123852;29;20319;-63
2022/04/17 08:37:54;;;;;;;2.95;1.90;;;39.10;10.70;;;;;;6127694;28;20219;-63
2022/04/17 08:40:58;;;;;;;2.15;1.95;;;39.40;10.60;;;;;;6127694;29;20227;-63
2022/04/17 08:44:01;;;;;;;2.28;1.55;;;40.70;10.20;;;;;;6127253;29;20231;-63
2022/04/17 08:47:07;;;;;;;3.42;2.03;;;41.70;9.20;;;;;;6124597;29;20222;-64
2022/04/17 08:50:12;;;;;;;1.63;1.52;;;42.30;9.20;;;;;;6126739;29;20239;-64
2022/04/17 08:53:16;;;;;;;2.75;1.80;;;42.70;9.20;;;;;;6127008;29;20238;-62
2022/04/17 08:56:26;;;;;;;2.08;1.58;;;41.60;8.60;;;;;;6125997;29;20223;-63
2022/04/17 08:59:29;;;;;;;1.80;1.70;;;41.40;9.00;;;;;;6128671;29;20242;-64
2022/04/17 09:02:33;;;;;;;2.40;1.90;;;40.50;8.80;;;;;;6129616;29;20243;-63
2022/04/17 09:05:38;;;;;;;1.65;1.55;;;41.00;8.90;;;;;;6126116;29;20227;-63
2022/04/17 09:09:00;;;;;;;1.90;1.45;;;40.90;8.90;;;;;;6128841;29;20239;-64
2022/04/17 09:12:04;;;;;;;2.83;1.67;;;39.80;9.60;;;;;;6123410;29;20249;-64
2022/04/17 09:15:10;;;;;;;1.83;1.42;;;40.00;8.80;;;;;;6128546;29;20249;-65
2022/04/17 09:18:19;;;;;;;1.70;1.60;;;39.90;8.90;;;;;;6129274;29;20227;-64
2022/04/17 09:21:33;;;;;;;2.38;1.75;;;39.40;9.00;;;;;;6128338;28;20226;-64
2022/04/17 09:24:37;;;;;;;3.30;2.08;;;39.00;9.00;;;;;;6126018;29;20231;-65
2022/04/17 09:27:54;;;;;;;1.70;1.40;;;37.00;9.50;;;;;;6127560;29;20701;-63
2022/04/17 09:30:59;;;;;;;2.00;1.50;;;35.00;10.10;;;;;;6125799;29;20234;-64
2022/04/17 09:34:09;;;;;;;1.80;1.67;;;33.40;10.80;;;;;;6127724;29;20227;-65
2022/04/17 09:37:14;;;;;;;2.15;1.55;;;31.70;11.50;;;;;;6125757;29;20235;-66
2022/04/17 09:40:21;;;;;;;4.72;2.20;;;30.20;12.50;;;;;;6128874;29;20231;-65
2022/04/17 09:43:24;;;;;;;2.67;1.80;;;28.90;14.10;;;;;;6125349;29;20235;-63
2022/04/17 09:46:27;;;;;;;2.40;1.67;;;27.20;14.10;;;;;;6127922;29;20237;-65
2022/04/17 09:49:31;;;;;;;2.30;1.90;;;26.00;15.80;;;;;;6125080;29;20246;-62
2022/04/17 09:52:45;;;;;;;2.20;2.00;;;25.00;16.10;;;;;;6124518;29;20227;-62
2022/04/17 09:55:48;;;;;;;2.13;1.83;;;24.10;17.00;;;;;;6126103;29;20247;-62
2022/04/17 09:58:51;;;;;;;2.07;1.87;;;23.40;17.70;;;;;;6115571;29;20252;-62
2022/04/17 10:01:57;;;;;;;1.97;1.83;;;23.00;17.60;;;;;;6104662;29;20246;-61
2022/04/17 10:05:03;;;;;;;2.27;1.60;;;22.50;17.70;;;;;;6104981;29;20241;-62
2022/04/17 10:08:10;;;;;;;2.23;1.90;;;22.10;18.80;;;;;;6104874;29;20240;-62
2022/04/17 10:11:15;;;;;;;2.03;1.67;;;21.80;19.00;;;;;;6105109;29;20232;-62
2022/04/17 10:14:18;;;;;;;1.63;1.50;;;21.70;18.60;;;;;;6107362;29;20696;-63
2022/04/17 10:17:23;;;;;;;3.10;1.93;;;21.40;18.90;;;;;;6108867;29;20233;-61
2022/04/17 10:20:27;;;;;;;2.50;1.43;;;21.10;19.50;;;;;;6108933;29;20689;-61
2022/04/17 10:23:31;;;;;;;4.00;1.50;;;20.70;18.50;;;;;;6109164;29;20236;-61
2022/04/17 10:26:39;;;;;;;2.47;1.87;;;20.40;18.90;;;;;;6109737;29;20236;-62
2022/04/17 10:29:46;;;;;;;1.53;1.30;;;20.10;18.90;;;;;;6108808;29;20671;-62
2022/04/17 10:33:21;;;;;;;2.53;1.53;;;19.90;19.10;;;;;;6108272;29;20319;-62
2022/04/17 10:36:39;;;;;;;2.00;1.70;;;20.00;19.60;;;;;;6109015;29;20228;-62
2022/04/17 10:39:49;;;;;;;2.37;1.53;;;20.00;19.00;;;;;;6108002;29;20674;-62
2022/04/17 10:42:56;;;;;;;2.57;2.03;;;20.00;19.60;;;;;;6116372;29;20574;-61
2022/04/17 10:46:14;;;;;;;3.73;1.90;;;20.00;19.60;;;;;;6132588;29;20703;-62
2022/04/17 10:49:19;;;;;;;2.10;1.63;;;19.80;20.80;;;;;;6132151;29;20234;-62
2022/04/17 10:52:31;;;;;;;4.13;2.20;;;19.60;20.60;;;;;;6131304;29;20672;-60
2022/04/17 10:55:35;;;;;;;2.17;1.93;;;19.20;21.40;;;;;;6131731;29;20228;-60
2022/04/17 10:58:40;;;;;;;2.40;2.10;;;19.10;21.20;;;;;;6131866;29;20286;-61
2022/04/17 11:02:05;;;;;;;2.43;1.97;;;19.20;21.10;;;;;;6131731;29;20246;-61
2022/04/17 11:05:11;;;;;;;2.23;1.50;;;19.20;20.90;;;;;;6131551;29;20243;-62
2022/04/17 11:08:22;;;;;;;2.60;1.53;;;19.30;19.50;;;;;;6131344;29;20247;-61
2022/04/17 11:11:35;;;;;;;2.80;1.97;;;19.30;19.10;;;;;;6130960;29;20244;-64
2022/04/17 11:14:39;;;;;;;2.10;1.50;;;19.10;19.90;;;;;;6131350;29;20247;-65
2022/04/17 11:17:43;;;;;;;1.67;1.53;;;19.20;21.80;;;;;;6131445;29;20232;-64
2022/04/17 11:20:52;;;;;;;2.13;1.93;;;19.20;22.50;;;;;;6131123;29;20552;-63
2022/04/17 11:24:01;;;;;;;4.60;1.97;;;19.40;21.30;;;;;;6130707;29;20592;-63
2022/04/17 11:27:11;;;;;;;3.80;1.43;;;19.70;21.10;;;;;;6130705;29;20250;-64
2022/04/17 11:30:33;;;;;;;2.20;1.77;;;19.60;21.20;;;;;;6131026;29;20236;-63
2022/04/17 11:33:36;;;;;;;5.70;2.30;;;19.30;21.10;;;;;;6130308;28;20256;-64
2022/04/17 11:36:39;;;;;;;1.90;1.80;;;19.10;23.40;;;;;;6130283;29;21676;-62
2022/04/17 11:39:44;;;;;;;2.70;1.90;;;18.80;23.10;;;;;;6126849;29;20732;-64
2022/04/17 11:42:48;;;;;;;3.20;2.03;;;18.50;22.30;;;;;;6129994;29;20252;-64
2022/04/17 11:45:51;;;;;;;2.00;1.53;;;18.40;22.50;;;;;;6131094;29;20231;-64
2022/04/17 11:48:55;;;;;;;1.70;1.60;;;18.60;23.10;;;;;;6128416;29;20268;-65
2022/04/17 11:51:58;;;;;;;3.83;2.30;;;18.90;21.80;;;;;;6126680;29;20227;-64
2022/04/17 11:55:02;;;;;;;3.07;2.50;;;19.00;22.10;;;;;;6129789;29;20500;-64
2022/04/17 11:58:10;;;;;;;2.20;2.00;;;18.90;22.60;;;;;;6130478;29;20544;-64
2022/04/17 12:01:23;;;;;;;1.80;1.70;;;19.10;22.70;;;;;;6130358;29;20238;-63
2022/04/17 12:04:26;;;;;;;2.47;2.27;;;19.10;22.20;;;;;;6130438;29;20661;-63
2022/04/17 12:07:29;;;;;;;2.20;2.03;;;19.10;22.50;;;;;;6129964;29;20242;-63
2022/04/17 12:10:35;;;;;;;2.13;1.90;;;19.10;22.30;;;;;;6130237;29;20227;-64
2022/04/17 12:13:39;;;;;;;4.07;1.90;;;19.00;21.60;;;;;;6129783;29;20244;-66
2022/04/17 12:16:51;;;;;;;3.47;1.60;;;18.80;22.40;;;;;;6130045;29;20236;-64
2022/04/17 12:19:54;;;;;;;2.63;1.60;;;18.80;22.10;;;;;;6129970;29;20239;-64
2022/04/17 12:22:57;;;;;;;1.77;1.67;;;18.70;21.80;;;;;;6130975;29;20247;-64
2022/04/17 12:26:05;;;;;;;1.73;1.63;;;18.70;22.70;;;;;;6130520;29;20273;-65
2022/04/17 12:29:09;;;;;;;2.00;1.77;;;18.70;22.40;;;;;;6130080;29;20895;-64
2022/04/17 12:32:15;;;;;;;2.37;2.17;;;18.70;22.00;;;;;;6129571;29;20231;-64
2022/04/17 12:35:26;;;;;;;1.90;1.57;;;18.60;21.90;;;;;;6129338;29;20235;-65
2022/04/17 12:38:29;;;;;;;1.90;1.60;;;18.60;21.70;;;;;;6129716;29;20236;-65
2022/04/17 12:41:42;;;;;;;2.77;1.60;;;18.90;22.00;;;;;;6129216;29;20247;-64
2022/04/17 12:44:47;;;;;;;2.70;1.60;;;19.00;21.60;;;;;;6129550;29;20245;-64
2022/04/17 12:48:01;;;;;;;3.23;1.53;;;19.10;21.80;;;;;;6129585;29;20236;-64
2022/04/17 12:51:06;;;;;;;2.00;1.47;;;19.10;20.30;;;;;;6120462;29;20243;-64
2022/04/17 12:54:12;;;;;;;1.80;1.70;;;19.10;21.30;;;;;;6128992;29;20254;-64
2022/04/17 12:57:21;;;;;;;1.60;1.37;;;19.20;20.40;;;;;;6129298;29;20242;-63
2022/04/17 13:00:26;;;;;;;3.30;1.37;;;19.10;21.00;;;;;;6129164;29;20507;-64
2022/04/17 13:03:36;;;;;;;1.93;1.70;;;19.10;21.00;;;;;;6129108;29;20661;-64
2022/04/17 13:06:40;;;;;;;1.33;1.23;;;19.10;20.70;;;;;;6129219;29;20215;-64
2022/04/17 13:09:51;;;;;;;1.60;1.50;;;18.90;21.40;;;;;;6129301;29;20231;-64
2022/04/17 13:12:56;;;;;;;1.77;1.30;;;18.60;21.50;;;;;;6129149;29;20580;-65
2022/04/17 13:16:02;;;;;;;2.10;1.77;;;18.40;21.30;;;;;;6129716;29;20286;-65
2022/04/17 13:19:05;;;;;;;3.10;1.70;;;18.20;20.20;;;;;;6129345;29;20247;-65
2022/04/17 13:22:10;;;;;;;1.80;1.70;;;18.20;20.40;;;;;;6128967;29;20487;-65
2022/04/17 13:25:14;;;;;;;1.90;1.67;;;18.10;21.10;;;;;;6129059;29;20235;-65
2022/04/17 13:28:19;;;;;;;1.80;1.70;;;17.90;23.00;;;;;;6129002;29;20227;-62
2022/04/17 13:31:22;;;;;;;1.57;1.47;;;17.70;23.20;;;;;;6128479;29;20472;-62
2022/04/17 13:34:25;;;;;;;2.63;1.87;;;17.60;24.30;;;;;;6126261;29;20235;-63
2022/04/17 13:40:50;;;;;;;2.23;2.03;;;17.70;23.80;;;;;;6126508;29;20475;-63
2022/04/17 13:43:55;;;;;;;1.83;1.53;;;17.80;23.40;;;;;;6127785;29;20498;-63
2022/04/17 13:46:58;;;;;;;1.93;1.73;;;17.70;23.60;;;;;;6128796;28;20486;-64
2022/04/17 13:50:02;;;;;;;4.93;1.60;;;17.50;22.90;;;;;;6132872;29;20475;-63
2022/04/17 13:53:05;;;;;;;1.87;1.77;;;17.40;23.00;;;;;;6128816;28;20483;-63
2022/04/17 13:56:09;;;;;;;2.50;1.70;;;17.40;22.90;;;;;;6132706;29;20487;-64
2022/04/17 13:59:17;;;;;;;1.63;1.53;;;17.40;23.10;;;;;;6133187;29;20479;-62
2022/04/17 14:02:20;;;;;;;2.20;1.93;;;17.30;23.70;;;;;;6133011;29;20515;-64
2022/04/17 14:05:24;;;;;;;1.57;1.47;;;17.30;23.70;;;;;;6132713;29;20531;-64
2022/04/17 14:08:27;;;;;;;4.17;2.47;;;17.20;24.20;;;;;;6132720;29;20479;-64
2022/04/17 14:11:31;;;;;;;2.40;2.07;;;17.10;24.70;;;;;;6132211;29;20514;-63
2022/04/17 14:14:36;;;;;;;4.63;2.33;;;17.00;24.60;;;;;;6132583;29;20491;-63
2022/04/17 14:17:39;;;;;;;3.70;1.70;;;17.00;24.60;;;;;;6132783;29;20479;-63
2022/04/17 14:20:42;;;;;;;4.43;2.57;;;16.90;23.80;;;;;;6132795;29;20472;-64
2022/04/17 14:23:45;;;;;;;1.73;1.63;;;17.00;24.30;;;;;;6132174;29;20608;-64
2022/04/17 14:26:48;;;;;;;2.20;1.90;;;16.90;24.20;;;;;;6132479;29;20495;-63
2022/04/17 14:29:53;;;;;;;3.20;2.20;;;16.80;24.90;;;;;;6132171;29;20480;-63
2022/04/17 14:32:57;;;;;;;3.63;2.17;;;16.70;24.90;;;;;;6128737;29;20823;-63
2022/04/17 14:36:00;;;;;;;2.83;1.80;;;16.70;25.60;;;;;;6132299;29;20542;-62
2022/04/17 14:39:03;;;;;;;3.53;2.17;;;16.70;24.70;;;;;;6132051;29;20994;-62
2022/04/17 14:42:07;;;;;;;4.60;2.20;;;16.80;25.20;;;;;;6131826;29;20822;-64
2022/04/17 14:45:21;;;;;;;2.87;1.63;;;16.80;24.90;;;;;;6131900;29;20489;-62
2022/04/17 14:48:24;;;;;;;3.10;2.50;;;16.80;25.10;;;;;;6132132;29;20933;-63
2022/04/17 14:51:27;;;;;;;3.00;1.60;;;16.80;25.00;;;;;;6131846;29;20494;-63
2022/04/17 14:54:32;;;;;;;4.70;2.00;;;16.80;25.40;;;;;;6131268;29;20483;-62
2022/04/17 14:57:35;;;;;;;1.87;1.70;;;16.80;25.00;;;;;;6131947;29;20444;-63
2022/04/17 15:00:40;;;;;;;2.53;1.50;;;16.90;24.10;;;;;;6131384;29;20463;-63
2022/04/17 15:03:47;;;;;;;1.57;1.40;;;16.90;23.90;;;;;;6131116;29;21005;-62
2022/04/17 15:06:50;;;;;;;4.07;1.80;;;16.70;24.80;;;;;;6134148;29;20795;-62
2022/04/17 15:09:53;;;;;;;2.93;1.47;;;16.60;25.10;;;;;;6155352;28;20478;-63
2022/04/17 15:12:56;;;;;;;3.70;1.83;;;16.60;24.70;;;;;;6154906;29;20462;-63
2022/04/17 15:16:00;;;;;;;1.83;1.50;;;16.50;25.00;;;;;;6154891;29;20506;-61
2022/04/17 15:19:04;;;;;;;1.90;1.07;;;16.50;25.80;;;;;;6155324;29;20467;-64
2022/04/17 15:22:07;;;;;;;2.30;1.60;;;16.60;25.10;;;;;;6154637;29;20970;-66
2022/04/17 15:25:10;;;;;;;2.40;1.50;;;16.70;25.20;;;;;;6154648;29;20474;-63
2022/04/17 15:28:14;;;;;;;2.00;1.80;;;16.90;25.30;;;;;;6155149;29;20470;-63
2022/04/17 15:31:19;;;;;;;1.43;1.33;;;16.90;24.60;;;;;;6154946;29;20493;-63
2022/04/17 15:34:23;;;;;;;2.30;1.77;;;16.70;25.20;;;;;;6135134;29;20631;-64
2022/04/17 15:37:26;;;;;;;3.83;2.23;;;16.60;24.90;;;;;;6131708;29;20495;-63
2022/04/17 15:40:29;;;;;;;2.10;1.87;;;16.60;25.00;;;;;;6132182;29;20975;-64
2022/04/17 15:50:14;;;;;;;1.20;1.10;;;16.60;24.50;;;;;;6130034;29;20471;-64
2022/04/17 15:53:18;;;;;;;2.57;1.17;;;16.60;24.40;;;;;;6130073;29;20472;-62
2022/04/17 15:56:21;;;;;;;1.60;1.50;;;16.60;24.50;;;;;;6130162;29;20495;-62
2022/04/17 15:59:24;;;;;;;1.73;1.30;;;16.60;25.10;;;;;;6129856;29;20472;-62
2022/04/17 16:02:28;;;;;;;1.57;1.47;;;16.60;24.70;;;;;;6120114;29;20494;-62
2022/04/17 16:05:32;;;;;;;1.53;1.43;;;16.50;24.80;;;;;;6129334;29;20486;-62
2022/04/17 16:08:35;;;;;;;2.70;1.77;;;16.40;25.00;;;;;;6129287;29;20480;-61
2022/04/17 16:11:39;;;;;;;2.67;1.30;;;16.50;24.90;;;;;;6128232;29;20488;-61
2022/04/17 16:14:42;;;;;;;2.33;1.47;;;16.40;24.70;;;;;;6128642;29;20798;-60
2022/04/17 16:17:46;;;;;;;1.83;1.73;;;16.30;24.30;;;;;;6129129;29;20486;-61
2022/04/17 16:20:50;;;;;;;2.00;1.60;;;16.30;24.80;;;;;;6129746;29;20479;-61
2022/04/17 16:23:53;;;;;;;2.03;1.23;;;16.40;25.40;;;;;;6129347;29;20491;-61